Time;durP1;ratioP1;P1;durP2;ratioP2;P2;SDS_P1;SDS_P2;PMS_P1;PMS_P2;Temp;Humidity;BMP_temperature;BMP_pressure;BME280_temperature;BME280_humidity;BME280_pressure;Samples;Min_cycle;Max_cycle;Signal;HPM_P1;HPM_P2
2023/05/07 00:02:46;;;;;;;1.35;0.70;;;;;;;18.82;56.45;100285.19;10349867;28;20082;-61
2023/05/07 00:07:48;;;;;;;2.17;0.98;;;;;;;18.72;56.69;100289.47;10351298;28;20501;-61
2023/05/07 00:12:49;;;;;;;1.45;0.60;;;;;;;18.68;56.79;100280.97;10349883;28;20512;-61
2023/05/07 00:17:50;;;;;;;2.28;0.70;;;;;;;18.67;56.92;100294.78;10347264;28;20409;-60
2023/05/07 00:22:52;;;;;;;5.68;0.88;;;;;;;18.73;56.83;100274.81;10347052;28;20058;-61
2023/05/07 00:27:53;;;;;;;0.93;0.60;;;;;;;18.73;57.00;100280.25;10350824;28;20694;-61
2023/05/07 00:32:55;;;;;;;1.65;0.70;;;;;;;18.71;57.14;100282.38;10349009;28;20137;-60
2023/05/07 00:37:57;;;;;;;0.98;0.57;;;;;;;18.68;57.19;100278.25;10349841;28;20811;-59
2023/05/07 00:42:59;;;;;;;1.13;0.52;;;;;;;18.66;57.49;100285.81;10347008;28;20490;-61
2023/05/07 00:48:02;;;;;;;2.35;0.70;;;;;;;18.66;57.60;100274.91;10350475;28;20058;-60
2023/05/07 00:53:04;;;;;;;3.60;0.93;;;;;;;18.67;57.63;100264.84;10344908;28;20054;-60
2023/05/07 00:58:06;;;;;;;4.93;0.60;;;;;;;18.69;57.47;100258.09;10346719;28;20033;-61
2023/05/07 01:03:07;;;;;;;3.30;1.00;;;;;;;18.69;57.67;100252.66;10345289;28;20509;-62
2023/05/07 01:08:10;;;;;;;0.98;0.60;;;;;;;18.65;57.82;100253.34;10352877;28;20038;-62
2023/05/07 01:13:13;;;;;;;1.42;0.73;;;;;;;18.63;57.87;100261.75;10344323;28;20164;-60
2023/05/07 01:18:15;;;;;;;1.63;0.65;;;;;;;18.65;57.74;100262.34;10341133;28;20787;-59
2023/05/07 01:23:17;;;;;;;0.80;0.80;;;;;;;18.67;57.85;100267.56;10347038;28;20084;-59
2023/05/07 01:28:19;;;;;;;2.53;0.63;;;;;;;18.62;57.91;100268.25;10342219;28;20137;-60
2023/05/07 01:33:22;;;;;;;2.35;0.70;;;;;;;18.42;58.75;100266.66;10343519;28;20041;-59
2023/05/07 01:38:23;;;;;;;3.03;0.70;;;;;;;18.36;58.74;100262.09;10336817;28;20070;-60
2023/05/07 01:43:25;;;;;;;2.50;0.90;;;;;;;18.35;58.61;100270.53;10342605;28;20136;-61
2023/05/07 01:48:27;;;;;;;2.95;0.50;;;;;;;18.35;58.60;100259.63;10343529;28;20056;-61
2023/05/07 01:53:28;;;;;;;6.47;0.90;;;;;;;18.33;58.67;100259.03;10346878;28;20081;-59
2023/05/07 01:58:30;;;;;;;0.60;0.50;;;;;;;18.36;58.35;100259.38;10340926;28;20054;-59
2023/05/07 02:03:31;;;;;;;4.45;0.68;;;;;;;18.39;58.35;100253.50;10341757;28;20417;-61
2023/05/07 02:08:32;;;;;;;1.33;0.65;;;;;;;18.37;58.49;100261.06;10341591;28;20489;-60
2023/05/07 02:13:34;;;;;;;1.05;0.70;;;;;;;18.40;58.27;100260.59;10342686;28;20928;-61
2023/05/07 02:18:36;;;;;;;1.98;0.70;;;;;;;18.36;58.44;100267.53;10346622;28;20133;-61
2023/05/07 02:23:37;;;;;;;2.30;0.82;;;;;;;18.31;58.73;100267.41;10345878;28;20049;-60
2023/05/07 02:28:38;;;;;;;1.58;0.70;;;;;;;18.32;58.65;100252.75;10346315;28;20524;-60
2023/05/07 02:33:40;;;;;;;2.85;0.95;;;;;;;18.33;58.56;100265.31;10340023;28;20073;-61
2023/05/07 02:38:41;;;;;;;1.73;0.70;;;;;;;18.30;58.88;100271.19;10344539;28;20125;-60
2023/05/07 02:43:42;;;;;;;1.10;0.73;;;;;;;18.30;58.65;100271.19;10343540;28;20082;-61
2023/05/07 02:48:44;;;;;;;1.55;0.80;;;;;;;18.25;58.88;100268.34;10350272;28;20473;-59
2023/05/07 02:53:45;;;;;;;2.95;1.42;;;;;;;18.21;59.05;100265.25;10348784;28;20147;-60
2023/05/07 02:58:47;;;;;;;1.50;0.88;;;;;;;18.18;58.99;100276.56;10351521;28;20093;-59
2023/05/07 03:03:48;;;;;;;1.48;0.88;;;;;;;18.11;59.33;100273.13;10346410;28;20141;-61
2023/05/07 03:08:50;;;;;;;1.95;0.75;;;;;;;18.13;59.10;100268.28;10350100;28;20042;-61
2023/05/07 03:13:51;;;;;;;3.42;1.23;;;;;;;18.13;59.24;100262.84;10348057;28;20077;-59
2023/05/07 03:18:52;;;;;;;2.85;1.58;;;;;;;18.13;59.10;100257.38;10349139;28;20085;-59
2023/05/07 03:23:54;;;;;;;1.67;0.73;;;;;;;18.14;59.23;100258.22;10353275;28;20061;-60
2023/05/07 03:28:55;;;;;;;1.05;0.88;;;;;;;18.09;59.22;100256.19;10354432;28;20070;-60
2023/05/07 03:33:57;;;;;;;1.98;0.90;;;;;;;18.09;59.41;100258.06;10350004;28;20054;-60
2023/05/07 03:38:59;;;;;;;2.40;0.90;;;;;;;18.07;59.45;100260.16;10347304;28;20061;-61
2023/05/07 03:44:00;;;;;;;5.30;0.80;;;;;;;18.08;59.45;100264.56;10349900;28;20045;-61
2023/05/07 03:49:01;;;;;;;2.03;0.80;;;;;;;18.06;59.54;100251.19;10347294;28;20707;-61
2023/05/07 03:54:03;;;;;;;2.05;0.80;;;;;;;18.08;59.35;100248.25;10350481;28;20141;-75
2023/05/07 03:59:06;;;;;;;1.13;0.95;;;;;;;18.02;59.64;100252.69;10346097;28;20054;-70
2023/05/07 04:04:08;;;;;;;4.07;1.52;;;;;;;18.02;59.42;100252.69;10356956;28;20197;-73
2023/05/07 04:09:09;;;;;;;3.55;0.90;;;;;;;17.96;59.49;100256.34;10359891;28;20051;-74
2023/05/07 04:14:10;;;;;;;4.28;0.80;;;;;;;17.86;59.72;100251.44;10361423;28;20053;-74
2023/05/07 04:19:12;;;;;;;3.05;0.95;;;;;;;17.84;59.98;100267.13;10359803;28;20102;-69
2023/05/07 04:24:13;;;;;;;2.90;1.10;;;;;;;17.88;60.16;100262.91;10357035;28;20054;-74
2023/05/07 04:29:15;;;;;;;3.50;1.00;;;;;;;17.86;60.22;100275.06;10345058;28;20054;-75
2023/05/07 04:34:16;;;;;;;9.18;1.40;;;;;;;17.76;60.69;100291.88;10352976;28;20077;-74
2023/05/07 04:39:17;;;;;;;2.10;1.20;;;;;;;17.64;60.89;100298.03;10350403;28;21000;-71
2023/05/07 04:44:19;;;;;;;1.77;1.27;;;;;;;17.75;60.80;100312.81;10346429;28;20435;-73
2023/05/07 04:49:20;;;;;;;3.42;1.25;;;;;;;17.83;60.72;100303.50;10347372;28;20564;-75
2023/05/07 04:54:22;;;;;;;3.30;1.15;;;;;;;17.93;60.41;100309.31;10359514;28;20042;-72
2023/05/07 04:59:23;;;;;;;2.90;1.90;;;;;;;17.97;60.56;100296.91;10349732;28;20046;-71
2023/05/07 05:04:25;;;;;;;2.95;1.27;;;;;;;17.97;60.73;100304.22;10346668;28;20045;-74
2023/05/07 05:09:26;;;;;;;4.47;1.10;;;;;;;17.91;60.95;100316.84;10351431;28;20517;-67
2023/05/07 05:14:29;;;;;;;4.07;1.40;;;;;;;17.98;60.90;100316.78;10345588;28;20081;-67
2023/05/07 05:19:30;;;;;;;2.03;1.27;;;;;;;18.06;60.86;100323.81;10345236;28;20073;-67
2023/05/07 05:24:32;;;;;;;1.48;0.98;;;;;;;18.13;60.55;100330.03;10345052;28;20727;-67
2023/05/07 05:29:33;;;;;;;2.17;0.98;;;;;;;18.25;60.39;100330.94;10343172;28;20145;-67
2023/05/07 05:34:34;;;;;;;1.45;0.93;;;;;;;18.29;60.24;100336.75;10347199;28;20140;-67
2023/05/07 05:39:36;;;;;;;5.25;0.90;;;;;;;18.41;59.94;100332.19;10345095;28;20073;-66
2023/05/07 05:44:37;;;;;;;4.30;1.13;;;;;;;18.54;59.72;100329.31;10340497;28;20545;-67
2023/05/07 05:49:39;;;;;;;1.63;0.93;;;;;;;18.64;59.45;100339.63;10341958;28;20082;-67
2023/05/07 05:54:40;;;;;;;2.92;1.10;;;;;;;18.78;59.42;100338.41;10345038;28;20137;-66
2023/05/07 05:59:44;;;;;;;2.05;1.10;;;;;;;18.90;58.93;100340.38;10349749;28;20137;-67
2023/05/07 06:04:45;;;;;;;2.13;0.88;;;;;;;19.00;59.01;100332.50;10342788;28;20061;-66
2023/05/07 06:09:46;;;;;;;2.83;1.10;;;;;;;19.10;58.90;100335.47;10343494;28;20413;-67
2023/05/07 06:14:48;;;;;;;2.78;1.02;;;;;;;19.20;58.57;100338.47;10343505;28;20157;-67
2023/05/07 06:19:49;;;;;;;3.78;1.10;;;;;;;19.27;58.33;100338.34;10340667;28;20058;-67
2023/05/07 06:24:51;;;;;;;3.42;1.92;;;;;;;19.29;58.16;100338.94;10352264;28;20077;-66
2023/05/07 06:29:52;;;;;;;1.83;1.10;;;;;;;19.39;57.83;100343.81;10347528;28;20149;-66
2023/05/07 06:34:53;;;;;;;3.63;1.10;;;;;;;19.44;57.51;100338.50;10348064;28;20120;-67
2023/05/07 06:39:55;;;;;;;2.05;0.90;;;;;;;19.51;57.40;100352.88;10354584;28;20046;-68
2023/05/07 06:44:59;;;;;;;2.47;1.33;;;;;;;19.56;57.14;100358.44;10354748;28;20053;-66
2023/05/07 06:50:01;;;;;;;2.92;1.17;;;;;;;19.62;57.02;100349.31;10352380;28;20066;-67
2023/05/07 06:55:02;;;;;;;1.70;1.30;;;;;;;19.62;57.03;100353.94;10345499;28;20065;-67
2023/05/07 07:00:06;;;;;;;3.20;1.25;;;;;;;19.64;56.67;100356.44;10345525;28;20556;-67
2023/05/07 07:05:08;;;;;;;4.05;1.17;;;;;;;19.65;56.93;100358.94;10344369;28;20381;-67
2023/05/07 07:10:10;;;;;;;3.80;1.40;;;;;;;19.85;56.78;100344.97;10346152;28;20046;-68
2023/05/07 07:15:13;;;;;;;2.03;1.30;;;;;;;20.10;56.38;100349.34;10345693;28;20062;-68
2023/05/07 07:20:14;;;;;;;2.13;1.30;;;;;;;20.39;55.65;100355.69;10346008;28;20069;-68
2023/05/07 07:25:16;;;;;;;2.22;1.50;;;;;;;20.60;54.84;100357.00;10344051;28;20145;-67
2023/05/07 07:30:18;;;;;;;2.03;1.33;;;;;;;20.90;54.18;100364.13;10347627;28;20066;-67
2023/05/07 07:35:19;;;;;;;1.20;1.10;;;;;;;21.08;53.24;100368.56;10341648;28;20141;-68
2023/05/07 07:40:21;;;;;;;3.08;1.63;;;;;;;21.32;52.36;100372.81;10346249;28;20054;-67
2023/05/07 07:45:23;;;;;;;1.88;1.38;;;;;;;21.43;52.27;100373.88;10344556;28;20097;-68
2023/05/07 07:50:24;;;;;;;3.28;1.23;;;;;;;21.70;51.49;100367.72;10353509;28;20061;-68
2023/05/07 07:55:44;;;;;;;4.95;2.33;;;;;;;21.85;50.80;100365.22;10360058;28;20086;-69
2023/05/07 08:00:47;;;;;;;2.00;1.80;;;;;;;21.91;51.19;100372.44;10375678;28;20046;-68
2023/05/07 08:05:50;;;;;;;2.17;1.58;;;;;;;22.16;50.43;100366.50;10375650;28;20065;-69
2023/05/07 08:10:52;;;;;;;1.70;1.40;;;;;;;22.20;49.98;100369.56;10377588;28;20078;-69
2023/05/07 08:15:53;;;;;;;3.13;1.70;;;;;;;22.35;49.68;100360.75;10373079;28;20042;-68
2023/05/07 08:20:55;;;;;;;2.05;1.48;;;;;;;22.73;48.81;100368.09;10367143;28;20112;-68
2023/05/07 08:25:56;;;;;;;3.88;1.83;;;;;;;23.11;48.07;100362.78;10368288;28;20415;-69
2023/05/07 08:31:00;;;;;;;3.22;1.40;;;;;;;23.42;47.11;100361.16;10374455;28;20046;-68
2023/05/07 08:36:01;;;;;;;2.45;1.45;;;;;;;23.55;46.57;100368.91;10368117;28;20058;-68
2023/05/07 08:41:03;;;;;;;1.42;1.10;;;;;;;23.67;46.00;100357.75;10367888;28;20053;-68
2023/05/07 08:46:05;;;;;;;2.28;1.50;;;;;;;23.73;45.33;100353.13;10363234;28;20186;-68
2023/05/07 08:51:15;;;;;;;1.57;1.00;;;;;;;23.91;45.27;100365.66;10371729;28;20042;-67
2023/05/07 08:56:18;;;;;;;4.53;1.38;;;;;;;24.12;44.18;100363.88;10372830;28;20463;-69
2023/05/07 09:01:21;;;;;;;3.20;1.38;;;;;;;24.37;43.66;100357.69;10366928;28;20104;-66
2023/05/07 09:06:23;;;;;;;2.08;1.27;;;;;;;24.58;43.18;100360.53;10350696;28;20140;-65
2023/05/07 09:11:24;;;;;;;1.95;1.20;;;;;;;24.77;42.50;100358.13;10345876;28;20058;-63
2023/05/07 09:16:30;;;;;;;3.60;1.80;;;;;;;24.85;42.18;100360.34;10346223;28;20050;-65
2023/05/07 09:21:31;;;;;;;3.25;1.13;;;;;;;25.05;41.57;100362.31;10347507;28;20076;-64
2023/05/07 09:26:34;;;;;;;1.30;1.20;;;;;;;25.26;41.73;100363.22;10345169;28;20132;-65
2023/05/07 09:31:39;;;;;;;2.70;1.83;;;;;;;25.50;40.56;100353.31;10344062;28;20049;-66
2023/05/07 09:36:40;;;;;;;9.65;1.75;;;;;;;25.69;40.76;100359.09;10346710;28;20136;-66
2023/05/07 09:41:46;;;;;;;5.93;2.08;;;;;;;25.78;40.16;100356.59;10342662;28;20778;-64
2023/05/07 09:46:53;;;;;;;2.53;2.20;;;;;;;25.85;40.07;100351.63;10342866;28;20080;-64
2023/05/07 09:51:56;;;;;;;4.85;2.08;;;;;;;25.77;40.18;100346.69;10341929;28;20325;-64
2023/05/07 09:56:58;;;;;;;2.55;1.20;;;;;;;25.77;40.32;100346.69;10343793;28;20058;-62
2023/05/07 10:02:01;;;;;;;5.93;2.05;;;;;;;25.96;39.98;100351.66;10337964;28;20114;-64
2023/05/07 10:07:05;;;;;;;5.83;1.90;;;;;;;26.12;39.32;100353.25;10297590;28;20128;-66
2023/05/07 10:12:07;;;;;;;3.55;1.60;;;;;;;26.31;38.93;100347.97;10299030;28;20073;-65
2023/05/07 10:17:11;;;;;;;1.58;1.20;;;;;;;26.43;38.97;100339.38;10307843;28;20042;-67
2023/05/07 10:22:16;;;;;;;2.50;1.27;;;;;;;26.67;38.46;100339.56;10337324;28;20106;-67
2023/05/07 10:27:18;;;;;;;2.53;2.10;;;;;;;27.30;37.56;100342.47;10337486;28;20079;-67
2023/05/07 10:32:29;;;;;;;2.00;1.30;;;;;;;27.65;37.09;100342.47;10328065;28;20057;-67
2023/05/07 10:37:31;;;;;;;3.08;1.52;;;;;;;28.04;36.06;100345.16;10330584;28;20062;-67
2023/05/07 10:42:32;;;;;;;4.22;1.33;;;;;;;28.28;35.32;100338.81;10325611;28;20042;-67
2023/05/07 10:47:34;;;;;;;2.35;1.48;;;;;;;28.47;35.08;100347.13;10329956;28;20046;-67
2023/05/07 10:52:35;;;;;;;1.50;1.40;;;;;;;28.73;34.71;100342.09;10328301;28;20054;-67
2023/05/07 10:57:37;;;;;;;1.23;1.00;;;;;;;28.85;34.42;100344.41;10330228;28;20050;-67
2023/05/07 11:03:00;;;;;;;1.20;0.90;;;;;;;28.84;34.28;100328.97;10326961;28;20126;-67
2023/05/07 11:08:03;;;;;;;2.67;1.10;;;;;;;28.80;34.40;100328.72;10331380;28;20118;-67
2023/05/07 11:13:05;;;;;;;2.00;1.10;;;;;;;29.13;33.71;100327.97;10348232;28;20046;-67
2023/05/07 11:18:06;;;;;;;1.73;1.00;;;;;;;29.40;32.68;100321.72;10340318;28;20057;-67
2023/05/07 11:23:08;;;;;;;1.45;0.93;;;;;;;29.39;32.84;100326.47;10341880;28;20062;-68
2023/05/07 11:28:10;;;;;;;2.83;0.93;;;;;;;29.60;32.57;100326.09;10335225;28;20065;-68
2023/05/07 11:33:11;;;;;;;1.02;0.98;;;;;;;29.62;32.44;100323.84;10345055;28;20105;-67
2023/05/07 11:38:13;;;;;;;2.40;0.93;;;;;;;29.57;32.44;100329.47;10341344;28;20051;-67
2023/05/07 11:43:15;;;;;;;1.48;1.00;;;;;;;29.72;31.73;100315.41;10334090;28;20054;-66
2023/05/07 11:48:16;;;;;;;1.08;0.75;;;;;;;31.16;29.63;100315.13;10348403;28;20094;-69
2023/05/07 11:53:19;;;;;;;1.65;0.88;;;;;;;33.70;25.24;100307.13;10337716;28;20085;-67
2023/05/07 11:58:22;;;;;;;0.77;0.75;;;;;;;34.27;25.86;100302.31;10350446;28;20038;-68
2023/05/07 12:03:24;;;;;;;1.23;0.80;;;;;;;33.68;26.40;100303.03;10367450;28;20042;-68
2023/05/07 12:08:25;;;;;;;2.08;0.70;;;;;;;33.18;26.56;100299.69;10395799;28;20113;-68
2023/05/07 12:13:27;;;;;;;2.55;1.50;;;;;;;32.68;27.41;100293.75;10384138;28;20046;-69
2023/05/07 12:18:29;;;;;;;2.58;0.70;;;;;;;32.00;27.85;100286.56;10392491;28;20030;-68
2023/05/07 12:23:30;;;;;;;1.65;0.60;;;;;;;31.74;28.47;100294.78;10395618;28;20042;-68
2023/05/07 12:28:38;;;;;;;1.65;0.95;;;;;;;31.88;28.08;100289.09;10392864;28;20134;-68
2023/05/07 12:33:39;;;;;;;2.60;1.10;;;;;;;31.97;28.25;100276.06;10364751;28;20050;-70
2023/05/07 12:38:41;;;;;;;1.70;0.90;;;;;;;32.06;27.82;100281.66;10346440;28;20081;-73
2023/05/07 12:43:45;;;;;;;2.17;0.77;;;;;;;31.99;28.23;100276.56;10344142;28;20073;-70
2023/05/07 12:48:48;;;;;;;1.73;0.90;;;;;;;32.13;27.67;100270.91;10344384;28;20489;-72
2023/05/07 12:53:49;;;;;;;3.25;1.17;;;;;;;32.38;27.63;100274.88;10339000;28;20069;-69
2023/05/07 12:58:51;;;;;;;4.10;0.70;;;;;;;32.74;27.20;100268.22;10338511;28;20054;-71
2023/05/07 13:03:52;;;;;;;2.42;0.95;;;;;;;32.88;27.08;100264.44;10340877;28;20159;-71
2023/05/07 13:08:54;;;;;;;0.80;0.60;;;;;;;32.82;27.50;100266.56;10339000;28;20468;-72
2023/05/07 13:13:55;;;;;;;1.35;0.90;;;;;;;32.77;27.22;100263.97;10344733;28;20050;-71
2023/05/07 13:18:56;;;;;;;1.00;0.70;;;;;;;32.46;27.71;100258.50;10340801;28;20136;-71
2023/05/07 13:23:58;;;;;;;1.27;0.82;;;;;;;32.53;27.62;100256.88;10348696;28;20503;-70
2023/05/07 13:29:00;;;;;;;1.27;0.85;;;;;;;32.15;28.00;100262.22;10361566;28;20065;-70
2023/05/07 13:34:01;;;;;;;1.98;0.70;;;;;;;31.77;28.34;100260.75;10339523;28;20416;-70
2023/05/07 13:39:03;;;;;;;1.55;0.80;;;;;;;31.52;27.88;100253.16;10342351;28;20050;-71
2023/05/07 13:44:05;;;;;;;1.13;0.80;;;;;;;31.59;28.21;100242.38;10341283;28;20050;-70
2023/05/07 13:49:06;;;;;;;2.22;0.70;;;;;;;31.65;27.90;100248.63;10343089;28;20050;-71
2023/05/07 13:54:07;;;;;;;1.42;0.90;;;;;;;31.75;27.74;100243.56;10337726;28;20058;-69
2023/05/07 13:59:09;;;;;;;1.00;0.80;;;;;;;32.51;26.53;100244.44;10341683;28;20049;-71
2023/05/07 14:04:11;;;;;;;2.10;0.82;;;;;;;33.66;25.87;100232.84;10340361;28;20439;-70
2023/05/07 14:09:13;;;;;;;1.80;0.70;;;;;;;32.95;26.19;100228.56;10341100;28;20073;-60
2023/05/07 14:14:14;;;;;;;9.07;0.70;;;;;;;32.59;26.85;100232.53;10342207;28;20052;-64
2023/05/07 14:19:16;;;;;;;4.15;0.60;;;;;;;32.66;26.64;100229.25;10336229;28;20133;-60
2023/05/07 14:24:17;;;;;;;6.15;0.77;;;;;;;32.53;26.99;100217.09;10338549;28;20050;-58
2023/05/07 14:29:36;;;;;;;1.48;0.60;;;;;;;32.03;27.35;100220.31;10343005;28;20841;-59
2023/05/07 14:34:37;;;;;;;1.58;0.70;;;;;;;31.85;26.98;100227.75;10342221;28;20116;-58
2023/05/07 14:39:39;;;;;;;3.78;0.77;;;;;;;31.70;27.13;100223.47;10343244;28;20417;-59
2023/05/07 14:44:41;;;;;;;3.42;0.70;;;;;;;31.63;26.90;100218.34;10348614;28;20054;-58
2023/05/07 14:49:42;;;;;;;1.05;0.68;;;;;;;31.18;27.70;100226.75;10351663;28;20504;-59
2023/05/07 14:54:44;;;;;;;0.95;0.70;;;;;;;30.75;28.73;100228.09;10346175;28;20133;-59
2023/05/07 14:59:46;;;;;;;2.28;0.52;;;;;;;30.79;29.14;100220.78;10345952;28;20145;-58
2023/05/07 15:04:48;;;;;;;1.25;0.80;;;;;;;31.20;28.29;100230.88;10348020;28;20626;-59
2023/05/07 15:09:50;;;;;;;1.33;0.60;;;;;;;31.26;28.37;100239.06;10346785;28;20692;-58
2023/05/07 15:14:52;;;;;;;0.50;0.50;;;;;;;31.38;27.86;100245.69;10348332;28;20468;-58
2023/05/07 15:19:53;;;;;;;0.90;0.60;;;;;;;31.59;27.48;100236.81;10346957;28;20042;-58
2023/05/07 15:24:56;;;;;;;1.33;0.50;;;;;;;31.28;27.53;100250.66;10338432;28;20050;-58
2023/05/07 15:29:57;;;;;;;2.95;0.52;;;;;;;30.81;27.37;100256.53;10342828;28;20125;-58
2023/05/07 15:34:59;;;;;;;3.28;0.55;;;;;;;30.34;27.95;100256.78;10338467;28;20113;-59
2023/05/07 15:40:02;;;;;;;1.33;0.68;;;;;;;29.93;29.20;100262.31;10344885;28;20076;-59
2023/05/07 15:45:05;;;;;;;1.13;0.50;;;;;;;29.63;29.20;100256.22;10350647;28;20058;-70
2023/05/07 15:50:07;;;;;;;0.70;0.60;;;;;;;29.22;29.86;100259.72;10347750;28;20062;-70
2023/05/07 15:55:08;;;;;;;2.20;0.70;;;;;;;29.00;30.00;100265.88;10344169;28;20370;-72
2023/05/07 16:00:11;;;;;;;2.15;0.70;;;;;;;28.75;30.62;100259.63;10347699;28;20458;-71
2023/05/07 16:05:13;;;;;;;2.20;0.80;;;;;;;28.60;30.93;100260.69;10345845;28;20065;-66
2023/05/07 16:10:15;;;;;;;1.17;0.73;;;;;;;28.34;31.42;100268.50;10348754;28;20406;-65
2023/05/07 16:15:16;;;;;;;1.42;0.63;;;;;;;28.13;31.66;100259.63;10365629;28;20080;-64
2023/05/07 16:20:18;;;;;;;4.30;0.75;;;;;;;27.92;31.41;100261.81;10372794;28;20046;-65
2023/05/07 16:25:20;;;;;;;1.20;0.80;;;;;;;27.72;32.51;100254.53;10366517;28;20110;-65
2023/05/07 16:30:21;;;;;;;2.67;0.75;;;;;;;27.52;33.07;100252.81;10366239;28;20037;-65
2023/05/07 16:35:23;;;;;;;0.70;0.70;;;;;;;27.42;33.44;100258.47;10354365;28;20042;-65
2023/05/07 16:40:24;;;;;;;2.83;0.85;;;;;;;27.30;33.59;100254.13;10350370;28;20057;-65
2023/05/07 16:45:26;;;;;;;1.33;1.08;;;;;;;27.15;34.13;100262.53;10349772;28;20580;-65
2023/05/07 16:50:27;;;;;;;3.42;0.90;;;;;;;27.03;34.78;100264.84;10354897;28;20045;-66
2023/05/07 16:55:33;;;;;;;1.67;0.95;;;;;;;26.94;35.15;100267.41;10355117;28;20053;-66
2023/05/07 17:00:38;;;;;;;2.60;0.90;;;;;;;26.75;35.10;100272.75;10361366;28;20068;-65
2023/05/07 17:05:51;;;;;;;2.90;1.20;;;;;;;26.62;35.44;100282.50;10349450;28;20050;-65
2023/05/07 17:10:53;;;;;;;4.05;0.80;;;;;;;26.43;35.59;100281.47;10366796;28;20058;-65
2023/05/07 17:15:54;;;;;;;1.67;0.88;;;;;;;26.27;36.07;100294.50;10368943;28;20046;-65
2023/05/07 17:20:56;;;;;;;1.92;0.75;;;;;;;26.16;36.16;100301.16;10351305;28;20136;-65
2023/05/07 17:25:57;;;;;;;1.58;0.80;;;;;;;25.89;36.34;100340.88;10353886;28;20064;-64
2023/05/07 17:30:58;;;;;;;1.90;0.80;;;;;;;24.52;40.91;100362.44;10349751;28;20069;-64
2023/05/07 17:36:01;;;;;;;4.30;0.90;;;;;;;23.69;44.08;100376.72;10344342;28;20076;-69
2023/05/07 17:41:03;;;;;;;1.20;1.00;;;;;;;22.94;46.53;100402.03;10347820;28;20097;-69
2023/05/07 17:46:04;;;;;;;1.75;0.80;;;;;;;22.32;48.53;100402.38;10346110;28;20074;-70
2023/05/07 17:51:06;;;;;;;1.50;0.90;;;;;;;21.64;50.80;100410.59;10346034;28;20060;-71
2023/05/07 17:56:07;;;;;;;4.10;1.00;;;;;;;21.44;51.10;100426.66;10348372;28;20050;-69
2023/05/07 18:01:08;;;;;;;1.77;0.90;;;;;;;21.14;52.53;100430.47;10347430;28;20861;-69
2023/05/07 18:06:10;;;;;;;1.10;0.77;;;;;;;21.11;52.32;100436.41;10351150;28;20052;-70
2023/05/07 18:11:11;;;;;;;2.47;1.10;;;;;;;20.87;53.67;100438.38;10343847;28;20055;-69
2023/05/07 18:16:13;;;;;;;1.10;0.80;;;;;;;20.80;54.18;100435.81;10347983;28;20046;-69
2023/05/07 18:21:17;;;;;;;2.75;0.65;;;;;;;20.77;54.41;100445.31;10345530;28;20429;-69
2023/05/07 18:26:20;;;;;;;2.40;0.95;;;;;;;20.65;54.80;100451.88;10336777;28;20141;-69
2023/05/07 18:31:21;;;;;;;1.13;0.93;;;;;;;20.68;55.01;100463.16;10341677;28;20054;-68
2023/05/07 18:36:23;;;;;;;2.15;0.90;;;;;;;20.67;55.08;100475.13;10337755;28;20095;-69
2023/05/07 18:41:25;;;;;;;2.25;0.80;;;;;;;20.52;56.04;100481.06;10343159;28;20050;-69
2023/05/07 18:46:28;;;;;;;1.85;0.93;;;;;;;20.31;56.78;100485.22;10343543;28;20437;-69
2023/05/07 18:51:29;;;;;;;1.00;0.90;;;;;;;20.12;57.65;100489.97;10338623;28;20069;-70
2023/05/07 18:56:31;;;;;;;2.75;1.05;;;;;;;20.04;57.91;100495.75;10338887;28;20061;-70
2023/05/07 19:01:32;;;;;;;2.15;1.00;;;;;;;19.77;58.92;100496.19;10337583;28;20081;-70
2023/05/07 19:06:34;;;;;;;2.30;0.90;;;;;;;19.62;59.64;100504.75;10339426;28;20392;-69
2023/05/07 19:11:35;;;;;;;1.45;0.88;;;;;;;19.55;60.08;100506.75;10342372;28;20073;-64
2023/05/07 19:16:36;;;;;;;1.75;1.02;;;;;;;19.45;60.42;100511.94;10337547;28;20454;-65
2023/05/07 19:21:38;;;;;;;4.22;1.00;;;;;;;19.42;60.74;100518.66;10335234;28;20075;-64
2023/05/07 19:26:40;;;;;;;1.67;1.10;;;;;;;19.42;61.03;100517.84;10340208;28;20437;-63
2023/05/07 19:31:41;;;;;;;2.40;1.20;;;;;;;19.39;61.25;100521.88;10342861;28;20533;-63
2023/05/07 19:36:42;;;;;;;12.25;3.03;;;;;;;19.38;61.57;100533.00;10348569;28;20056;-63
2023/05/07 19:41:44;;;;;;;1.42;1.23;;;;;;;19.41;61.62;100541.56;10344658;28;20054;-63
2023/05/07 19:46:46;;;;;;;2.95;1.35;;;;;;;19.43;61.66;100546.75;10344452;28;20065;-64
2023/05/07 19:51:48;;;;;;;1.70;1.30;;;;;;;19.31;62.36;100548.59;10349379;28;20136;-63
2023/05/07 19:56:49;;;;;;;2.75;1.20;;;;;;;19.32;62.44;100553.84;10351642;28;20556;-64
2023/05/07 20:01:50;;;;;;;4.00;1.60;;;;;;;19.28;62.61;100552.63;10342683;28;20142;-63
2023/05/07 20:06:52;;;;;;;2.00;1.05;;;;;;;19.42;62.20;100564.19;10349672;28;20169;-62
2023/05/07 20:11:54;;;;;;;1.35;1.25;;;;;;;19.57;62.07;100569.25;10350612;28;20134;-64
2023/05/07 20:16:55;;;;;;;2.17;1.58;;;;;;;19.70;61.87;100574.50;10349541;28;20519;-64
2023/05/07 20:21:56;;;;;;;4.15;1.83;;;;;;;19.89;61.37;100579.97;10346147;28;20137;-64
2023/05/07 20:26:58;;;;;;;1.70;1.58;;;;;;;19.84;61.48;100583.38;10349051;28;20054;-64
2023/05/07 20:31:59;;;;;;;3.80;1.77;;;;;;;19.92;61.39;100584.94;10352485;28;20539;-63
2023/05/07 20:37:01;;;;;;;4.60;1.90;;;;;;;19.81;61.77;100595.59;10351912;28;20050;-64
2023/05/07 20:42:03;;;;;;;3.47;2.25;;;;;;;19.75;62.56;100598.44;10346623;28;20050;-65
2023/05/07 20:47:04;;;;;;;6.45;2.30;;;;;;;19.69;63.09;100612.94;10349678;28;20097;-66
2023/05/07 20:52:06;;;;;;;4.13;3.10;;;;;;;19.66;62.66;100611.50;10346147;28;20101;-65
2023/05/07 20:57:07;;;;;;;4.10;3.28;;;;;;;19.67;62.50;100613.19;10350795;28;20469;-65
2023/05/07 21:02:08;;;;;;;5.50;3.42;;;;;;;19.64;62.75;100615.53;10346418;28;20181;-66
2023/05/07 21:07:11;;;;;;;3.38;3.08;;;;;;;19.68;63.16;100625.75;10351337;28;20050;-65
2023/05/07 21:12:12;;;;;;;4.20;2.97;;;;;;;19.69;62.85;100621.97;10347442;28;20073;-66
2023/05/07 21:17:13;;;;;;;4.22;3.15;;;;;;;19.71;63.19;100625.31;10347464;28;20512;-65
2023/05/07 21:22:15;;;;;;;3.97;3.67;;;;;;;19.72;62.95;100631.59;10340771;28;20544;-65
2023/05/07 21:27:16;;;;;;;8.48;5.95;;;;;;;19.63;62.87;100631.06;10341120;28;20488;-65
2023/05/07 21:32:18;;;;;;;5.82;5.20;;;;;;;19.55;62.23;100639.53;10349407;28;20048;-65
2023/05/07 21:37:19;;;;;;;7.30;5.55;;;;;;;19.46;61.39;100644.47;10346255;28;20050;-65
2023/05/07 21:42:20;;;;;;;5.75;4.75;;;;;;;19.36;61.08;100636.81;10349038;28;20509;-65
2023/05/07 21:47:23;;;;;;;6.85;5.93;;;;;;;19.24;60.43;100638.66;10347836;28;20057;-65
2023/05/07 21:52:25;;;;;;;5.57;4.68;;;;;;;19.10;60.15;100643.41;10344066;28;20056;-66
2023/05/07 21:57:26;;;;;;;5.63;5.03;;;;;;;18.98;59.97;100637.03;10330271;28;20041;-65
2023/05/07 22:02:28;;;;;;;6.35;5.10;;;;;;;18.84;59.56;100644.50;10346017;28;20381;-65
2023/05/07 22:07:30;;;;;;;5.45;4.95;;;;;;;18.60;59.65;100649.69;10343116;28;20072;-65
2023/05/07 22:12:32;;;;;;;4.85;4.22;;;;;;;18.48;59.14;100645.16;10344117;28;20101;-63
2023/05/07 22:17:33;;;;;;;5.30;4.45;;;;;;;18.36;58.75;100645.03;10344888;28;20124;-63
2023/05/07 22:22:48;;;;;;;6.32;4.60;;;;;;;18.38;58.43;100645.66;10340568;28;20138;-64
2023/05/07 22:27:52;;;;;;;9.45;5.80;;;;;;;18.36;58.39;100661.38;10343185;28;20050;-64
2023/05/07 22:32:54;;;;;;;6.30;4.90;;;;;;;18.39;58.35;100661.78;10345665;28;20088;-63
2023/05/07 22:37:57;;;;;;;6.45;4.38;;;;;;;18.49;58.26;100665.91;10346991;28;20052;-64
2023/05/07 22:42:58;;;;;;;8.80;4.35;;;;;;;18.47;58.36;100671.56;10343819;28;20461;-64
2023/05/07 22:47:59;;;;;;;7.38;4.93;;;;;;;18.47;58.13;100674.28;10343195;28;20137;-64
2023/05/07 22:53:01;;;;;;;5.88;4.95;;;;;;;18.60;57.68;100681.50;10345885;28;20125;-65
2023/05/07 22:58:02;;;;;;;5.13;4.63;;;;;;;18.63;57.57;100679.19;10344564;28;20120;-64
2023/05/07 23:03:04;;;;;;;5.03;4.57;;;;;;;18.57;57.46;100684.69;10346592;28;20124;-65
2023/05/07 23:08:05;;;;;;;4.85;4.35;;;;;;;18.56;57.33;100681.13;10355190;28;20074;-63